<?xml version='1.0' encoding='UTF-8'?>
<gpx xmlns="http://www.topografix.com/GPX/1/1" creator="www.balnam.be" version="1.1" xmlns:xsi="http://www.w3.org/2001/XMLSchema-instance" xsi:schemaLocation="http://www.topografix.com/GPX/1/1 http://www.topografix.com/GPX/1/1/gpx.xsd">
<trk>
<name>nslss1</name>
<cmt>v</cmt>
<desc>Sinsin Chemin n°1 Rue de Belvaux / ? / Unnamed Road</desc>
<link href="https://chemins.be/sinsin/chemin/1"/><trkseg>
<trkpt lat="50.253690" lon="5.255447"><time>2026-05-02T17:16:53Z</time></trkpt>
<trkpt lat="50.255344" lon="5.256683"><time>2026-05-02T17:26:53Z</time></trkpt>
</trkseg></trk>
<trk>
<name>nslss1</name>
<cmt>d</cmt>
<desc>Sinsin Chemin n°1 Rue de Belvaux / ? / Unnamed Road</desc>
<link href="https://chemins.be/sinsin/chemin/1"/><trkseg>
<trkpt lat="50.255344" lon="5.256683"><time>2026-05-02T17:26:53Z</time></trkpt>
<trkpt lat="50.256736" lon="5.258084"><time>2026-05-02T17:36:53Z</time></trkpt>
</trkseg></trk>
<trk>
<name>nslss1</name>
<cmt>v</cmt>
<desc>Sinsin Chemin n°1 Rue de Belvaux / ? / Unnamed Road</desc>
<link href="https://chemins.be/sinsin/chemin/1"/><trkseg>
<trkpt lat="50.256736" lon="5.258084"><time>2026-05-02T17:36:53Z</time></trkpt>
<trkpt lat="50.259073" lon="5.262840"><time>2026-05-02T17:46:53Z</time></trkpt>
</trkseg></trk>
<trk>
<name>nslss1</name>
<cmt>s</cmt>
<desc>Sinsin Chemin n°1 Rue de Belvaux / ? / Unnamed Road</desc>
<link href="https://chemins.be/sinsin/chemin/1"/><trkseg>
<trkpt lat="50.259073" lon="5.262840"><time>2026-05-02T17:46:53Z</time></trkpt>
<trkpt lat="50.259533" lon="5.263774"><time>2026-05-02T17:56:53Z</time></trkpt>
</trkseg></trk>
<trk>
<name>nslss1</name>
<cmt>r</cmt>
<desc>Sinsin Chemin n°1 Rue de Belvaux / ? / Unnamed Road</desc>
<link href="https://chemins.be/sinsin/chemin/1"/><trkseg>
<trkpt lat="50.259533" lon="5.263774"><time>2026-05-02T17:56:53Z</time></trkpt>
<trkpt lat="50.260472" lon="5.265643"><time>2026-05-02T18:06:53Z</time></trkpt>
<trkpt lat="50.263389" lon="5.266245"><time>2026-05-02T18:16:53Z</time></trkpt>
<trkpt lat="50.266822" lon="5.268779"><time>2026-05-02T18:26:53Z</time></trkpt>
<trkpt lat="50.267519" lon="5.269325"><time>2026-05-02T18:36:53Z</time></trkpt>
<trkpt lat="50.273456" lon="5.277041"><time>2026-05-02T18:46:53Z</time></trkpt>
<trkpt lat="50.274849" lon="5.279233"><time>2026-05-02T18:56:53Z</time></trkpt>
<trkpt lat="50.275993" lon="5.281397"><time>2026-05-02T19:06:53Z</time></trkpt>
<trkpt lat="50.279547" lon="5.283360"><time>2026-05-02T19:16:53Z</time></trkpt>
<trkpt lat="50.280346" lon="5.284596"><time>2026-05-02T19:26:53Z</time></trkpt>
<trkpt lat="50.281160" lon="5.285229"><time>2026-05-02T19:36:53Z</time></trkpt>
<trkpt lat="50.282571" lon="5.287487"><time>2026-05-02T19:46:53Z</time></trkpt>
<trkpt lat="50.282846" lon="5.287955"><time>2026-05-02T19:56:53Z</time></trkpt>
</trkseg>
</trk>
<trk>
<name>nslss10</name>
<cmt>s</cmt>
<desc>Sinsin Chemin n°10 </desc>
<link href="https://chemins.be/sinsin/chemin/10"/><trkseg>
<trkpt lat="50.286046" lon="5.228447"><time>2026-05-02T17:16:53Z</time></trkpt>
<trkpt lat="50.286562" lon="5.227993"><time>2026-05-02T17:26:53Z</time></trkpt>
<trkpt lat="50.288518" lon="5.227327"><time>2026-05-02T17:36:53Z</time></trkpt>
<trkpt lat="50.288858" lon="5.227502"><time>2026-05-02T17:46:53Z</time></trkpt>
<trkpt lat="50.289398" lon="5.227455"><time>2026-05-02T17:56:53Z</time></trkpt>
<trkpt lat="50.289722" lon="5.227363"><time>2026-05-02T18:06:53Z</time></trkpt>
</trkseg></trk>
<trk>
<name>nslss10</name>
<cmt>v</cmt>
<desc>Sinsin Chemin n°10 </desc>
<link href="https://chemins.be/sinsin/chemin/10"/><trkseg>
<trkpt lat="50.289722" lon="5.227363"><time>2026-05-02T18:06:53Z</time></trkpt>
<trkpt lat="50.290037" lon="5.227284"><time>2026-05-02T18:16:53Z</time></trkpt>
<trkpt lat="50.291579" lon="5.227888"><time>2026-05-02T18:26:53Z</time></trkpt>
<trkpt lat="50.293147" lon="5.229867"><time>2026-05-02T18:36:53Z</time></trkpt>
</trkseg>
</trk>
<trk>
<name>nslss10bis</name>
<cmt>v</cmt>
<desc>Sinsin Chemin n°10bis </desc>
<link href="https://chemins.be/sinsin/chemin/10bis"/><trkseg>
<trkpt lat="50.288154" lon="5.225454"><time>2026-05-02T17:16:53Z</time></trkpt>
<trkpt lat="50.288115" lon="5.225790"><time>2026-05-02T17:26:53Z</time></trkpt>
<trkpt lat="50.288002" lon="5.226532"><time>2026-05-02T17:36:53Z</time></trkpt>
<trkpt lat="50.288081" lon="5.226800"><time>2026-05-02T17:46:53Z</time></trkpt>
<trkpt lat="50.288554" lon="5.227286"><time>2026-05-02T17:56:53Z</time></trkpt>
<trkpt lat="50.289296" lon="5.227846"><time>2026-05-02T18:06:53Z</time></trkpt>
<trkpt lat="50.289722" lon="5.227433"><time>2026-05-02T18:16:53Z</time></trkpt>
</trkseg>
</trk>
<trk>
<name>nslss11</name>
<cmt>s</cmt>
<desc>Sinsin Chemin n°11 Rue du Relais / GR 577 / Rue Saint-Lambert</desc>
<link href="https://chemins.be/sinsin/chemin/11"/><trkseg>
<trkpt lat="50.268925" lon="5.249025"><time>2026-05-02T17:16:53Z</time></trkpt>
<trkpt lat="50.268380" lon="5.248524"><time>2026-05-02T17:26:53Z</time></trkpt>
</trkseg></trk>
<trk>
<name>nslss11</name>
<cmt>r</cmt>
<desc>Sinsin Chemin n°11 Rue du Relais / GR 577 / Rue Saint-Lambert</desc>
<link href="https://chemins.be/sinsin/chemin/11"/><trkseg>
<trkpt lat="50.268380" lon="5.248524"><time>2026-05-02T17:26:53Z</time></trkpt>
<trkpt lat="50.268201" lon="5.247258"><time>2026-05-02T17:36:53Z</time></trkpt>
<trkpt lat="50.268399" lon="5.246028"><time>2026-05-02T17:46:53Z</time></trkpt>
</trkseg></trk>
<trk>
<name>nslss11</name>
<cmt>v</cmt>
<desc>Sinsin Chemin n°11 Rue du Relais / GR 577 / Rue Saint-Lambert</desc>
<link href="https://chemins.be/sinsin/chemin/11"/><trkseg>
<trkpt lat="50.268399" lon="5.246028"><time>2026-05-02T17:46:53Z</time></trkpt>
<trkpt lat="50.267070" lon="5.243506"><time>2026-05-02T17:56:53Z</time></trkpt>
<trkpt lat="50.265800" lon="5.240448"><time>2026-05-02T18:06:53Z</time></trkpt>
<trkpt lat="50.265361" lon="5.239075"><time>2026-05-02T18:16:53Z</time></trkpt>
<trkpt lat="50.263188" lon="5.236029"><time>2026-05-02T18:26:53Z</time></trkpt>
</trkseg>
</trk>
<trk>
<name>nslss12</name>
<cmt>r</cmt>
<desc>Sinsin Chemin n°12 Rue de l'Observatoire</desc>
<link href="https://chemins.be/sinsin/chemin/12"/><trkseg>
<trkpt lat="50.270701" lon="5.247192"><time>2026-05-02T17:16:53Z</time></trkpt>
<trkpt lat="50.270097" lon="5.246241"><time>2026-05-02T17:26:53Z</time></trkpt>
<trkpt lat="50.268820" lon="5.245095"><time>2026-05-02T17:36:53Z</time></trkpt>
</trkseg></trk>
<trk>
<name>nslss12</name>
<cmt>b</cmt>
<desc>Sinsin Chemin n°12 Rue de l'Observatoire</desc>
<link href="https://chemins.be/sinsin/chemin/12"/><trkseg>
<trkpt lat="50.268820" lon="5.245095"><time>2026-05-02T17:36:53Z</time></trkpt>
<trkpt lat="50.268585" lon="5.244109"><time>2026-05-02T17:46:53Z</time></trkpt>
</trkseg></trk>
<trk>
<name>nslss12</name>
<cmt>v</cmt>
<desc>Sinsin Chemin n°12 Rue de l'Observatoire</desc>
<link href="https://chemins.be/sinsin/chemin/12"/><trkseg>
<trkpt lat="50.268585" lon="5.244109"><time>2026-05-02T17:46:53Z</time></trkpt>
<trkpt lat="50.267806" lon="5.242440"><time>2026-05-02T17:56:53Z</time></trkpt>
<trkpt lat="50.266058" lon="5.236923"><time>2026-05-02T18:06:53Z</time></trkpt>
<trkpt lat="50.265042" lon="5.234492"><time>2026-05-02T18:16:53Z</time></trkpt>
</trkseg>
</trk>
<trk>
<name>nslss13</name>
<cmt>s</cmt>
<desc>Sinsin Chemin n°13 </desc>
<link href="https://chemins.be/sinsin/chemin/13"/><trkseg>
<trkpt lat="50.259073" lon="5.265140"><time>2026-05-02T17:16:53Z</time></trkpt>
<trkpt lat="50.257772" lon="5.264737"><time>2026-05-02T17:26:53Z</time></trkpt>
</trkseg></trk>
<trk>
<name>nslss13</name>
<cmt>v</cmt>
<desc>Sinsin Chemin n°13 </desc>
<link href="https://chemins.be/sinsin/chemin/13"/><trkseg>
<trkpt lat="50.257772" lon="5.264737"><time>2026-05-02T17:26:53Z</time></trkpt>
<trkpt lat="50.256507" lon="5.264447"><time>2026-05-02T17:36:53Z</time></trkpt>
</trkseg>
</trk>
<trk>
<name>nslss14</name>
<cmt>v</cmt>
<desc>Sinsin Chemin n°14 Chemin du Vivier des Moines</desc>
<link href="https://chemins.be/sinsin/chemin/14"/><trkseg>
<trkpt lat="50.268393" lon="5.249170"><time>2026-05-02T17:16:53Z</time></trkpt>
<trkpt lat="50.267223" lon="5.249372"><time>2026-05-02T17:26:53Z</time></trkpt>
<trkpt lat="50.266093" lon="5.248931"><time>2026-05-02T17:36:53Z</time></trkpt>
<trkpt lat="50.264705" lon="5.248218"><time>2026-05-02T17:46:53Z</time></trkpt>
<trkpt lat="50.262196" lon="5.247161"><time>2026-05-02T17:56:53Z</time></trkpt>
<trkpt lat="50.261377" lon="5.246094"><time>2026-05-02T18:06:53Z</time></trkpt>
<trkpt lat="50.260147" lon="5.244585"><time>2026-05-02T18:16:53Z</time></trkpt>
<trkpt lat="50.258196" lon="5.242165"><time>2026-05-02T18:26:53Z</time></trkpt>
<trkpt lat="50.257794" lon="5.241877"><time>2026-05-02T18:36:53Z</time></trkpt>
</trkseg>
</trk>
<trk>
<name>nslss15</name>
<cmt>v</cmt>
<desc>Sinsin Chemin n°15 Fond des Roppes</desc>
<link href="https://chemins.be/sinsin/chemin/15"/><trkseg>
<trkpt lat="50.271560" lon="5.251333"><time>2026-05-02T17:16:53Z</time></trkpt>
<trkpt lat="50.271490" lon="5.252131"><time>2026-05-02T17:26:53Z</time></trkpt>
<trkpt lat="50.271807" lon="5.252605"><time>2026-05-02T17:36:53Z</time></trkpt>
<trkpt lat="50.271620" lon="5.254069"><time>2026-05-02T17:46:53Z</time></trkpt>
<trkpt lat="50.271383" lon="5.254500"><time>2026-05-02T17:56:53Z</time></trkpt>
<trkpt lat="50.271085" lon="5.254677"><time>2026-05-02T18:06:53Z</time></trkpt>
<trkpt lat="50.271596" lon="5.256143"><time>2026-05-02T18:16:53Z</time></trkpt>
<trkpt lat="50.271912" lon="5.257049"><time>2026-05-02T18:26:53Z</time></trkpt>
<trkpt lat="50.271063" lon="5.258618"><time>2026-05-02T18:36:53Z</time></trkpt>
<trkpt lat="50.270960" lon="5.259261"><time>2026-05-02T18:46:53Z</time></trkpt>
<trkpt lat="50.270289" lon="5.263416"><time>2026-05-02T18:56:53Z</time></trkpt>
</trkseg>
</trk>
<trk>
<name>nslss15bis</name>
<cmt>s</cmt>
<desc>Sinsin Chemin n°15bis </desc>
<link href="https://chemins.be/sinsin/chemin/15bis"/><trkseg>
<trkpt lat="50.272069" lon="5.251869"><time>2026-05-02T17:16:53Z</time></trkpt>
<trkpt lat="50.271863" lon="5.252517"><time>2026-05-02T17:26:53Z</time></trkpt>
</trkseg>
</trk>
<trk>
<name>nslss16</name>
<cmt>v</cmt>
<desc>Sinsin Chemin n°16 </desc>
<link href="https://chemins.be/sinsin/chemin/16"/><trkseg>
<trkpt lat="50.275172" lon="5.257531"><time>2026-05-02T17:16:53Z</time></trkpt>
<trkpt lat="50.273689" lon="5.258583"><time>2026-05-02T17:26:53Z</time></trkpt>
<trkpt lat="50.273283" lon="5.258800"><time>2026-05-02T17:36:53Z</time></trkpt>
<trkpt lat="50.272096" lon="5.261163"><time>2026-05-02T17:46:53Z</time></trkpt>
<trkpt lat="50.270334" lon="5.263486"><time>2026-05-02T17:56:53Z</time></trkpt>
</trkseg>
</trk>
<trk>
<name>nslss17</name>
<cmt>v</cmt>
<desc>Sinsin Chemin n°17 GR 577</desc>
<link href="https://chemins.be/sinsin/chemin/17"/><trkseg>
<trkpt lat="50.282163" lon="5.234284"><time>2026-05-02T17:16:53Z</time></trkpt>
<trkpt lat="50.282899" lon="5.236838"><time>2026-05-02T17:26:53Z</time></trkpt>
<trkpt lat="50.284372" lon="5.239418"><time>2026-05-02T17:36:53Z</time></trkpt>
<trkpt lat="50.285102" lon="5.241607"><time>2026-05-02T17:46:53Z</time></trkpt>
</trkseg>
</trk>
<trk>
<name>nslss18</name>
<cmt>d</cmt>
<desc>Sinsin Chemin n°18 </desc>
<link href="https://chemins.be/sinsin/chemin/18"/><trkseg>
<trkpt lat="50.277328" lon="5.256519"><time>2026-05-02T17:16:53Z</time></trkpt>
<trkpt lat="50.278175" lon="5.255131"><time>2026-05-02T17:26:53Z</time></trkpt>
<trkpt lat="50.278474" lon="5.254842"><time>2026-05-02T17:36:53Z</time></trkpt>
<trkpt lat="50.278647" lon="5.254621"><time>2026-05-02T17:46:53Z</time></trkpt>
<trkpt lat="50.278934" lon="5.254725"><time>2026-05-02T17:56:53Z</time></trkpt>
<trkpt lat="50.280285" lon="5.254413"><time>2026-05-02T18:06:53Z</time></trkpt>
<trkpt lat="50.280774" lon="5.255040"><time>2026-05-02T18:16:53Z</time></trkpt>
<trkpt lat="50.281397" lon="5.254743"><time>2026-05-02T18:26:53Z</time></trkpt>
</trkseg>
</trk>
<trk>
<name>nslss19</name>
<cmt>v</cmt>
<desc>Sinsin Chemin n°19 Rue Tige-de-Nettine</desc>
<link href="https://chemins.be/sinsin/chemin/19"/><trkseg>
<trkpt lat="50.269009" lon="5.243850"><time>2026-05-02T17:16:53Z</time></trkpt>
<trkpt lat="50.269124" lon="5.242885"><time>2026-05-02T17:26:53Z</time></trkpt>
<trkpt lat="50.269166" lon="5.242128"><time>2026-05-02T17:36:53Z</time></trkpt>
<trkpt lat="50.269217" lon="5.240193"><time>2026-05-02T17:46:53Z</time></trkpt>
<trkpt lat="50.269721" lon="5.238813"><time>2026-05-02T17:56:53Z</time></trkpt>
<trkpt lat="50.269456" lon="5.236999"><time>2026-05-02T18:06:53Z</time></trkpt>
<trkpt lat="50.269658" lon="5.234113"><time>2026-05-02T18:16:53Z</time></trkpt>
<trkpt lat="50.270234" lon="5.232833"><time>2026-05-02T18:26:53Z</time></trkpt>
<trkpt lat="50.270310" lon="5.229846"><time>2026-05-02T18:36:53Z</time></trkpt>
<trkpt lat="50.270598" lon="5.228589"><time>2026-05-02T18:46:53Z</time></trkpt>
<trkpt lat="50.270412" lon="5.228263"><time>2026-05-02T18:56:53Z</time></trkpt>
<trkpt lat="50.270731" lon="5.227665"><time>2026-05-02T19:06:53Z</time></trkpt>
<trkpt lat="50.270676" lon="5.224129"><time>2026-05-02T19:16:53Z</time></trkpt>
<trkpt lat="50.270235" lon="5.223013"><time>2026-05-02T19:26:53Z</time></trkpt>
</trkseg>
</trk>
<trk>
<name>nslss2</name>
<cmt>v</cmt>
<desc>Sinsin Chemin n°2 Rue de Belvaux / ? / Rue Thyge d'Heure</desc>
<link href="https://chemins.be/sinsin/chemin/2"/><trkseg>
<trkpt lat="50.253804" lon="5.249895"><time>2026-05-02T17:16:53Z</time></trkpt>
<trkpt lat="50.256611" lon="5.257885"><time>2026-05-02T17:26:53Z</time></trkpt>
<trkpt lat="50.258957" lon="5.262627"><time>2026-05-02T17:36:53Z</time></trkpt>
</trkseg></trk>
<trk>
<name>nslss2</name>
<cmt>s</cmt>
<desc>Sinsin Chemin n°2 Rue de Belvaux / ? / Rue Thyge d'Heure</desc>
<link href="https://chemins.be/sinsin/chemin/2"/><trkseg>
<trkpt lat="50.258957" lon="5.262627"><time>2026-05-02T17:36:53Z</time></trkpt>
<trkpt lat="50.259541" lon="5.263859"><time>2026-05-02T17:46:53Z</time></trkpt>
</trkseg></trk>
<trk>
<name>nslss2</name>
<cmt>r</cmt>
<desc>Sinsin Chemin n°2 Rue de Belvaux / ? / Rue Thyge d'Heure</desc>
<link href="https://chemins.be/sinsin/chemin/2"/><trkseg>
<trkpt lat="50.259541" lon="5.263859"><time>2026-05-02T17:46:53Z</time></trkpt>
<trkpt lat="50.260525" lon="5.265658"><time>2026-05-02T17:56:53Z</time></trkpt>
</trkseg></trk>
<trk>
<name>nslss2</name>
<cmt>v</cmt>
<desc>Sinsin Chemin n°2 Rue de Belvaux / ? / Rue Thyge d'Heure</desc>
<link href="https://chemins.be/sinsin/chemin/2"/><trkseg>
<trkpt lat="50.260525" lon="5.265658"><time>2026-05-02T17:56:53Z</time></trkpt>
<trkpt lat="50.261161" lon="5.267129"><time>2026-05-02T18:06:53Z</time></trkpt>
<trkpt lat="50.261415" lon="5.268017"><time>2026-05-02T18:16:53Z</time></trkpt>
<trkpt lat="50.262201" lon="5.269884"><time>2026-05-02T18:26:53Z</time></trkpt>
<trkpt lat="50.262872" lon="5.271495"><time>2026-05-02T18:36:53Z</time></trkpt>
<trkpt lat="50.263525" lon="5.274187"><time>2026-05-02T18:46:53Z</time></trkpt>
<trkpt lat="50.263970" lon="5.275935"><time>2026-05-02T18:56:53Z</time></trkpt>
</trkseg>
</trk>
<trk>
<name>nslss20</name>
<cmt>v</cmt>
<desc>Sinsin Chemin n°20 </desc>
<link href="https://chemins.be/sinsin/chemin/20"/><trkseg>
<trkpt lat="50.281844" lon="5.270158"><time>2026-05-02T17:16:53Z</time></trkpt>
<trkpt lat="50.282895" lon="5.270346"><time>2026-05-02T17:26:53Z</time></trkpt>
<trkpt lat="50.283947" lon="5.271432"><time>2026-05-02T17:36:53Z</time></trkpt>
<trkpt lat="50.284842" lon="5.273105"><time>2026-05-02T17:46:53Z</time></trkpt>
<trkpt lat="50.285523" lon="5.272276"><time>2026-05-02T17:56:53Z</time></trkpt>
<trkpt lat="50.286056" lon="5.271922"><time>2026-05-02T18:06:53Z</time></trkpt>
<trkpt lat="50.286544" lon="5.272759"><time>2026-05-02T18:16:53Z</time></trkpt>
<trkpt lat="50.286698" lon="5.272678"><time>2026-05-02T18:26:53Z</time></trkpt>
</trkseg></trk>
<trk>
<name>nslss20</name>
<cmt>d</cmt>
<desc>Sinsin Chemin n°20 </desc>
<link href="https://chemins.be/sinsin/chemin/20"/><trkseg>
<trkpt lat="50.286698" lon="5.272678"><time>2026-05-02T18:26:53Z</time></trkpt>
<trkpt lat="50.286834" lon="5.272498"><time>2026-05-02T18:36:53Z</time></trkpt>
<trkpt lat="50.286873" lon="5.272106"><time>2026-05-02T18:46:53Z</time></trkpt>
<trkpt lat="50.286846" lon="5.271024"><time>2026-05-02T18:56:53Z</time></trkpt>
<trkpt lat="50.285973" lon="5.268791"><time>2026-05-02T19:06:53Z</time></trkpt>
<trkpt lat="50.284917" lon="5.265768"><time>2026-05-02T19:16:53Z</time></trkpt>
<trkpt lat="50.283829" lon="5.263572"><time>2026-05-02T19:26:53Z</time></trkpt>
<trkpt lat="50.283215" lon="5.263799"><time>2026-05-02T19:36:53Z</time></trkpt>
<trkpt lat="50.283643" lon="5.266628"><time>2026-05-02T19:46:53Z</time></trkpt>
<trkpt lat="50.283322" lon="5.267407"><time>2026-05-02T19:56:53Z</time></trkpt>
<trkpt lat="50.281797" lon="5.267042"><time>2026-05-02T20:06:53Z</time></trkpt>
<trkpt lat="50.280761" lon="5.268383"><time>2026-05-02T20:16:53Z</time></trkpt>
</trkseg>
</trk>
<trk>
<name>nslss21</name>
<cmt>r</cmt>
<desc>Sinsin Chemin n°21 </desc>
<link href="https://chemins.be/sinsin/chemin/21"/><trkseg>
<trkpt lat="50.275018" lon="5.269243"><time>2026-05-02T17:16:53Z</time></trkpt>
<trkpt lat="50.275158" lon="5.269792"><time>2026-05-02T17:26:53Z</time></trkpt>
<trkpt lat="50.274750" lon="5.271384"><time>2026-05-02T17:36:53Z</time></trkpt>
<trkpt lat="50.274485" lon="5.271898"><time>2026-05-02T17:46:53Z</time></trkpt>
<trkpt lat="50.274060" lon="5.275678"><time>2026-05-02T17:56:53Z</time></trkpt>
<trkpt lat="50.273439" lon="5.276915"><time>2026-05-02T18:06:53Z</time></trkpt>
</trkseg></trk>
<trk>
<name>nslss21</name>
<cmt>v</cmt>
<desc>Sinsin Chemin n°21 </desc>
<link href="https://chemins.be/sinsin/chemin/21"/><trkseg>
<trkpt lat="50.273439" lon="5.276915"><time>2026-05-02T18:06:53Z</time></trkpt>
<trkpt lat="50.272970" lon="5.278211"><time>2026-05-02T18:16:53Z</time></trkpt>
<trkpt lat="50.272760" lon="5.279792"><time>2026-05-02T18:26:53Z</time></trkpt>
<trkpt lat="50.272976" lon="5.280862"><time>2026-05-02T18:36:53Z</time></trkpt>
<trkpt lat="50.273265" lon="5.281920"><time>2026-05-02T18:46:53Z</time></trkpt>
<trkpt lat="50.273144" lon="5.282339"><time>2026-05-02T18:56:53Z</time></trkpt>
</trkseg>
</trk>
<trk>
<name>nslss22</name>
<cmt>v</cmt>
<desc>Sinsin Chemin n°22 </desc>
<link href="https://chemins.be/sinsin/chemin/22"/><trkseg>
<trkpt lat="50.273204" lon="5.252612"><time>2026-05-02T17:16:53Z</time></trkpt>
<trkpt lat="50.273833" lon="5.251487"><time>2026-05-02T17:26:53Z</time></trkpt>
<trkpt lat="50.274546" lon="5.251136"><time>2026-05-02T17:36:53Z</time></trkpt>
<trkpt lat="50.274795" lon="5.251547"><time>2026-05-02T17:46:53Z</time></trkpt>
<trkpt lat="50.275314" lon="5.251893"><time>2026-05-02T17:56:53Z</time></trkpt>
<trkpt lat="50.275982" lon="5.251527"><time>2026-05-02T18:06:53Z</time></trkpt>
<trkpt lat="50.276393" lon="5.251829"><time>2026-05-02T18:16:53Z</time></trkpt>
</trkseg>
</trk>
<trk>
<name>nslss23</name>
<cmt>r</cmt>
<desc>Sinsin Chemin n°23 Rue de la Fontaine</desc>
<link href="https://chemins.be/sinsin/chemin/23"/><trkseg>
<trkpt lat="50.275581" lon="5.260429"><time>2026-05-02T17:16:53Z</time></trkpt>
<trkpt lat="50.275020" lon="5.260853"><time>2026-05-02T17:26:53Z</time></trkpt>
<trkpt lat="50.275077" lon="5.261668"><time>2026-05-02T17:36:53Z</time></trkpt>
<trkpt lat="50.275671" lon="5.262745"><time>2026-05-02T17:46:53Z</time></trkpt>
<trkpt lat="50.276165" lon="5.263947"><time>2026-05-02T17:56:53Z</time></trkpt>
</trkseg>
</trk>
<trk>
<name>nslss24</name>
<cmt>s</cmt>
<desc>Sinsin Chemin n°24 </desc>
<link href="https://chemins.be/sinsin/chemin/24"/><trkseg>
<trkpt lat="50.274568" lon="5.233964"><time>2026-05-02T17:16:53Z</time></trkpt>
<trkpt lat="50.274636" lon="5.233348"><time>2026-05-02T17:26:53Z</time></trkpt>
</trkseg></trk>
<trk>
<name>nslss24</name>
<cmt>q</cmt>
<desc>Sinsin Chemin n°24 </desc>
<link href="https://chemins.be/sinsin/chemin/24"/><trkseg>
<trkpt lat="50.274636" lon="5.233348"><time>2026-05-02T17:26:53Z</time></trkpt>
<trkpt lat="50.274680" lon="5.232170"><time>2026-05-02T17:36:53Z</time></trkpt>
<trkpt lat="50.274340" lon="5.230733"><time>2026-05-02T17:46:53Z</time></trkpt>
<trkpt lat="50.274181" lon="5.230393"><time>2026-05-02T17:56:53Z</time></trkpt>
</trkseg></trk>
<trk>
<name>nslss24</name>
<cmt>d</cmt>
<desc>Sinsin Chemin n°24 </desc>
<link href="https://chemins.be/sinsin/chemin/24"/><trkseg>
<trkpt lat="50.274181" lon="5.230393"><time>2026-05-02T17:56:53Z</time></trkpt>
<trkpt lat="50.273654" lon="5.228756"><time>2026-05-02T18:06:53Z</time></trkpt>
<trkpt lat="50.273038" lon="5.226893"><time>2026-05-02T18:16:53Z</time></trkpt>
</trkseg>
</trk>
<trk>
<name>nslss25</name>
<cmt>v</cmt>
<desc>Sinsin Chemin n°25 </desc>
<link href="https://chemins.be/sinsin/chemin/25"/><trkseg>
<trkpt lat="50.277313" lon="5.247960"><time>2026-05-02T17:16:53Z</time></trkpt>
<trkpt lat="50.277146" lon="5.246273"><time>2026-05-02T17:26:53Z</time></trkpt>
<trkpt lat="50.277339" lon="5.245687"><time>2026-05-02T17:36:53Z</time></trkpt>
</trkseg></trk>
<trk>
<name>nslss25</name>
<cmt>d</cmt>
<desc>Sinsin Chemin n°25 </desc>
<link href="https://chemins.be/sinsin/chemin/25"/><trkseg>
<trkpt lat="50.277339" lon="5.245687"><time>2026-05-02T17:36:53Z</time></trkpt>
<trkpt lat="50.277599" lon="5.244542"><time>2026-05-02T17:46:53Z</time></trkpt>
<trkpt lat="50.277722" lon="5.242622"><time>2026-05-02T17:56:53Z</time></trkpt>
<trkpt lat="50.277428" lon="5.239782"><time>2026-05-02T18:06:53Z</time></trkpt>
</trkseg>
</trk>
<trk>
<name>nslss26</name>
<cmt>v</cmt>
<desc>Sinsin Chemin n°26 </desc>
<link href="https://chemins.be/sinsin/chemin/26"/><trkseg>
<trkpt lat="50.277219" lon="5.256727"><time>2026-05-02T17:16:53Z</time></trkpt>
<trkpt lat="50.278107" lon="5.258189"><time>2026-05-02T17:26:53Z</time></trkpt>
<trkpt lat="50.279306" lon="5.258969"><time>2026-05-02T17:36:53Z</time></trkpt>
<trkpt lat="50.279557" lon="5.259044"><time>2026-05-02T17:46:53Z</time></trkpt>
<trkpt lat="50.280038" lon="5.258526"><time>2026-05-02T17:56:53Z</time></trkpt>
<trkpt lat="50.280784" lon="5.258435"><time>2026-05-02T18:06:53Z</time></trkpt>
</trkseg>
</trk>
<trk>
<name>nslss27</name>
<cmt>v</cmt>
<desc>Sinsin Chemin n°27 </desc>
<link href="https://chemins.be/sinsin/chemin/27"/><trkseg>
<trkpt lat="50.276984" lon="5.266193"><time>2026-05-02T17:16:53Z</time></trkpt>
<trkpt lat="50.277716" lon="5.265758"><time>2026-05-02T17:26:53Z</time></trkpt>
<trkpt lat="50.279249" lon="5.263907"><time>2026-05-02T17:36:53Z</time></trkpt>
<trkpt lat="50.280509" lon="5.262710"><time>2026-05-02T17:46:53Z</time></trkpt>
</trkseg>
</trk>
<trk>
<name>nslss28</name>
<cmt>s</cmt>
<desc>Sinsin Sentier n°28 </desc>
<link href="https://chemins.be/sinsin/sentier/28"/><trkseg>
<trkpt lat="50.267780" lon="5.250603"><time>2026-05-02T17:16:53Z</time></trkpt>
<trkpt lat="50.270102" lon="5.251474"><time>2026-05-02T17:26:53Z</time></trkpt>
<trkpt lat="50.271325" lon="5.252605"><time>2026-05-02T17:36:53Z</time></trkpt>
<trkpt lat="50.271713" lon="5.253608"><time>2026-05-02T17:46:53Z</time></trkpt>
<trkpt lat="50.271391" lon="5.254542"><time>2026-05-02T17:56:53Z</time></trkpt>
<trkpt lat="50.271560" lon="5.254826"><time>2026-05-02T18:06:53Z</time></trkpt>
</trkseg></trk>
<trk>
<name>nslss28</name>
<cmt>q</cmt>
<desc>Sinsin Sentier n°28 </desc>
<link href="https://chemins.be/sinsin/sentier/28"/><trkseg>
<trkpt lat="50.271560" lon="5.254826"><time>2026-05-02T18:06:53Z</time></trkpt>
<trkpt lat="50.271748" lon="5.254885"><time>2026-05-02T18:16:53Z</time></trkpt>
<trkpt lat="50.272240" lon="5.255245"><time>2026-05-02T18:26:53Z</time></trkpt>
<trkpt lat="50.272239" lon="5.255372"><time>2026-05-02T18:36:53Z</time></trkpt>
<trkpt lat="50.272731" lon="5.255759"><time>2026-05-02T18:46:53Z</time></trkpt>
<trkpt lat="50.273604" lon="5.256786"><time>2026-05-02T18:56:53Z</time></trkpt>
<trkpt lat="50.274196" lon="5.258158"><time>2026-05-02T19:06:53Z</time></trkpt>
</trkseg></trk>
<trk>
<name>nslss28</name>
<cmt>s</cmt>
<desc>Sinsin Sentier n°28 </desc>
<link href="https://chemins.be/sinsin/sentier/28"/><trkseg>
<trkpt lat="50.274196" lon="5.258158"><time>2026-05-02T19:06:53Z</time></trkpt>
<trkpt lat="50.274440" lon="5.258008"><time>2026-05-02T19:16:53Z</time></trkpt>
<trkpt lat="50.275004" lon="5.258313"><time>2026-05-02T19:26:53Z</time></trkpt>
<trkpt lat="50.275121" lon="5.258259"><time>2026-05-02T19:36:53Z</time></trkpt>
<trkpt lat="50.275345" lon="5.258320"><time>2026-05-02T19:46:53Z</time></trkpt>
</trkseg>
</trk>
<trk>
<name>nslss29</name>
<cmt>d</cmt>
<desc>Sinsin Sentier n°29 </desc>
<link href="https://chemins.be/sinsin/sentier/29"/><trkseg>
<trkpt lat="50.284860" lon="5.273120"><time>2026-05-02T17:16:53Z</time></trkpt>
<trkpt lat="50.286497" lon="5.275368"><time>2026-05-02T17:26:53Z</time></trkpt>
<trkpt lat="50.286808" lon="5.275809"><time>2026-05-02T17:36:53Z</time></trkpt>
<trkpt lat="50.287329" lon="5.276998"><time>2026-05-02T17:46:53Z</time></trkpt>
<trkpt lat="50.287621" lon="5.277649"><time>2026-05-02T17:56:53Z</time></trkpt>
<trkpt lat="50.288049" lon="5.278092"><time>2026-05-02T18:06:53Z</time></trkpt>
<trkpt lat="50.288360" lon="5.278645"><time>2026-05-02T18:16:53Z</time></trkpt>
<trkpt lat="50.288550" lon="5.279561"><time>2026-05-02T18:26:53Z</time></trkpt>
</trkseg>
</trk>
<trk>
<name>nslss3</name>
<cmt>v</cmt>
<desc>Sinsin Chemin n°3 Rue Nestor Bouillon</desc>
<link href="https://chemins.be/sinsin/chemin/3"/><trkseg>
<trkpt lat="50.286260" lon="5.281468"><time>2026-05-02T17:16:53Z</time></trkpt>
<trkpt lat="50.284976" lon="5.277907"><time>2026-05-02T17:26:53Z</time></trkpt>
<trkpt lat="50.283422" lon="5.273134"><time>2026-05-02T17:36:53Z</time></trkpt>
<trkpt lat="50.280800" lon="5.268019"><time>2026-05-02T17:46:53Z</time></trkpt>
<trkpt lat="50.276812" lon="5.266288"><time>2026-05-02T17:56:53Z</time></trkpt>
<trkpt lat="50.276244" lon="5.264201"><time>2026-05-02T18:06:53Z</time></trkpt>
<trkpt lat="50.276655" lon="5.262188"><time>2026-05-02T18:16:53Z</time></trkpt>
<trkpt lat="50.275706" lon="5.260599"><time>2026-05-02T18:26:53Z</time></trkpt>
<trkpt lat="50.275181" lon="5.257545"><time>2026-05-02T18:36:53Z</time></trkpt>
<trkpt lat="50.274944" lon="5.256755"><time>2026-05-02T18:46:53Z</time></trkpt>
<trkpt lat="50.275025" lon="5.255550"><time>2026-05-02T18:56:53Z</time></trkpt>
<trkpt lat="50.274914" lon="5.254846"><time>2026-05-02T19:06:53Z</time></trkpt>
<trkpt lat="50.273364" lon="5.252937"><time>2026-05-02T19:16:53Z</time></trkpt>
<trkpt lat="50.271623" lon="5.251348"><time>2026-05-02T19:26:53Z</time></trkpt>
<trkpt lat="50.270481" lon="5.248998"><time>2026-05-02T19:36:53Z</time></trkpt>
<trkpt lat="50.269186" lon="5.249002"><time>2026-05-02T19:46:53Z</time></trkpt>
<trkpt lat="50.268383" lon="5.249324"><time>2026-05-02T19:56:53Z</time></trkpt>
<trkpt lat="50.268242" lon="5.250135"><time>2026-05-02T20:06:53Z</time></trkpt>
<trkpt lat="50.266635" lon="5.251059"><time>2026-05-02T20:16:53Z</time></trkpt>
<trkpt lat="50.265080" lon="5.250960"><time>2026-05-02T20:26:53Z</time></trkpt>
<trkpt lat="50.261880" lon="5.250858"><time>2026-05-02T20:36:53Z</time></trkpt>
<trkpt lat="50.255380" lon="5.247176"><time>2026-05-02T20:46:53Z</time></trkpt>
</trkseg>
</trk>
<trk>
<name>nslss30</name>
<cmt>v</cmt>
<desc>Sinsin Sentier n°30 </desc>
<link href="https://chemins.be/sinsin/sentier/30"/><trkseg>
<trkpt lat="50.271173" lon="5.254819"><time>2026-05-02T17:16:53Z</time></trkpt>
<trkpt lat="50.271696" lon="5.255824"><time>2026-05-02T17:26:53Z</time></trkpt>
<trkpt lat="50.272275" lon="5.256621"><time>2026-05-02T17:36:53Z</time></trkpt>
<trkpt lat="50.273672" lon="5.258527"><time>2026-05-02T17:46:53Z</time></trkpt>
<trkpt lat="50.274131" lon="5.259602"><time>2026-05-02T17:56:53Z</time></trkpt>
<trkpt lat="50.274502" lon="5.260422"><time>2026-05-02T18:06:53Z</time></trkpt>
<trkpt lat="50.274661" lon="5.260818"><time>2026-05-02T18:16:53Z</time></trkpt>
<trkpt lat="50.274993" lon="5.260894"><time>2026-05-02T18:26:53Z</time></trkpt>
</trkseg>
</trk>
<trk>
<name>nslss31</name>
<cmt>s</cmt>
<desc>Sinsin Sentier n°31 </desc>
<link href="https://chemins.be/sinsin/sentier/31"/><trkseg>
<trkpt lat="50.274563" lon="5.260676"><time>2026-05-02T17:16:53Z</time></trkpt>
<trkpt lat="50.273838" lon="5.261392"><time>2026-05-02T17:26:53Z</time></trkpt>
<trkpt lat="50.272158" lon="5.262370"><time>2026-05-02T17:36:53Z</time></trkpt>
<trkpt lat="50.271017" lon="5.263457"><time>2026-05-02T17:46:53Z</time></trkpt>
<trkpt lat="50.270314" lon="5.263669"><time>2026-05-02T17:56:53Z</time></trkpt>
</trkseg></trk>
<trk>
<name>nslss31</name>
<cmt>v</cmt>
<desc>Sinsin Sentier n°31 </desc>
<link href="https://chemins.be/sinsin/sentier/31"/><trkseg>
<trkpt lat="50.270314" lon="5.263669"><time>2026-05-02T17:56:53Z</time></trkpt>
<trkpt lat="50.267764" lon="5.267857"><time>2026-05-02T18:06:53Z</time></trkpt>
<trkpt lat="50.266885" lon="5.268724"><time>2026-05-02T18:16:53Z</time></trkpt>
</trkseg>
</trk>
<trk>
<name>nslss32</name>
<cmt>d</cmt>
<desc>Sinsin Sentier n°32 </desc>
<link href="https://chemins.be/sinsin/sentier/32"/><trkseg>
<trkpt lat="50.276762" lon="5.262359"><time>2026-05-02T17:16:53Z</time></trkpt>
<trkpt lat="50.277688" lon="5.260047"><time>2026-05-02T17:26:53Z</time></trkpt>
<trkpt lat="50.278110" lon="5.260083"><time>2026-05-02T17:36:53Z</time></trkpt>
<trkpt lat="50.279229" lon="5.259571"><time>2026-05-02T17:46:53Z</time></trkpt>
<trkpt lat="50.279640" lon="5.259011"><time>2026-05-02T17:56:53Z</time></trkpt>
</trkseg></trk>
<trk>
<name>nslss32</name>
<cmt>v</cmt>
<desc>Sinsin Sentier n°32 </desc>
<link href="https://chemins.be/sinsin/sentier/32"/><trkseg>
<trkpt lat="50.279640" lon="5.259011"><time>2026-05-02T17:56:53Z</time></trkpt>
<trkpt lat="50.280008" lon="5.258500"><time>2026-05-02T18:06:53Z</time></trkpt>
<trkpt lat="50.280821" lon="5.258380"><time>2026-05-02T18:16:53Z</time></trkpt>
<trkpt lat="50.281541" lon="5.258253"><time>2026-05-02T18:26:53Z</time></trkpt>
<trkpt lat="50.282250" lon="5.258463"><time>2026-05-02T18:36:53Z</time></trkpt>
<trkpt lat="50.283645" lon="5.259401"><time>2026-05-02T18:46:53Z</time></trkpt>
</trkseg>
</trk>
<trk>
<name>nslss33</name>
<cmt>r</cmt>
<desc>Sinsin Sentier n°33 Rue du Baty / Rue du Sur-Viet</desc>
<link href="https://chemins.be/sinsin/sentier/33"/><trkseg>
<trkpt lat="50.269393" lon="5.248992"><time>2026-05-02T17:16:53Z</time></trkpt>
<trkpt lat="50.270032" lon="5.247201"><time>2026-05-02T17:26:53Z</time></trkpt>
<trkpt lat="50.270661" lon="5.247308"><time>2026-05-02T17:36:53Z</time></trkpt>
<trkpt lat="50.270864" lon="5.247115"><time>2026-05-02T17:46:53Z</time></trkpt>
</trkseg></trk>
<trk>
<name>nslss33</name>
<cmt>v</cmt>
<desc>Sinsin Sentier n°33 Rue du Baty / Rue du Sur-Viet</desc>
<link href="https://chemins.be/sinsin/sentier/33"/><trkseg>
<trkpt lat="50.270864" lon="5.247115"><time>2026-05-02T17:46:53Z</time></trkpt>
<trkpt lat="50.271415" lon="5.246995"><time>2026-05-02T17:56:53Z</time></trkpt>
<trkpt lat="50.271793" lon="5.247484"><time>2026-05-02T18:06:53Z</time></trkpt>
</trkseg></trk>
<trk>
<name>nslss33</name>
<cmt>q</cmt>
<desc>Sinsin Sentier n°33 Rue du Baty / Rue du Sur-Viet</desc>
<link href="https://chemins.be/sinsin/sentier/33"/><trkseg>
<trkpt lat="50.271793" lon="5.247484"><time>2026-05-02T18:06:53Z</time></trkpt>
<trkpt lat="50.272524" lon="5.248727"><time>2026-05-02T18:16:53Z</time></trkpt>
<trkpt lat="50.272896" lon="5.249393"><time>2026-05-02T18:26:53Z</time></trkpt>
<trkpt lat="50.274072" lon="5.249640"><time>2026-05-02T18:36:53Z</time></trkpt>
</trkseg></trk>
<trk>
<name>nslss33</name>
<cmt>d</cmt>
<desc>Sinsin Sentier n°33 Rue du Baty / Rue du Sur-Viet</desc>
<link href="https://chemins.be/sinsin/sentier/33"/><trkseg>
<trkpt lat="50.274072" lon="5.249640"><time>2026-05-02T18:36:53Z</time></trkpt>
<trkpt lat="50.274888" lon="5.249949"><time>2026-05-02T18:46:53Z</time></trkpt>
<trkpt lat="50.276939" lon="5.249819"><time>2026-05-02T18:56:53Z</time></trkpt>
<trkpt lat="50.277106" lon="5.249135"><time>2026-05-02T19:06:53Z</time></trkpt>
</trkseg></trk>
<trk>
<name>nslss33</name>
<cmt>v</cmt>
<desc>Sinsin Sentier n°33 Rue du Baty / Rue du Sur-Viet</desc>
<link href="https://chemins.be/sinsin/sentier/33"/><trkseg>
<trkpt lat="50.277106" lon="5.249135"><time>2026-05-02T19:06:53Z</time></trkpt>
<trkpt lat="50.277309" lon="5.249686"><time>2026-05-02T19:16:53Z</time></trkpt>
<trkpt lat="50.277468" lon="5.249969"><time>2026-05-02T19:26:53Z</time></trkpt>
<trkpt lat="50.277884" lon="5.249752"><time>2026-05-02T19:36:53Z</time></trkpt>
<trkpt lat="50.279942" lon="5.249847"><time>2026-05-02T19:46:53Z</time></trkpt>
</trkseg>
</trk>
<trk>
<name>nslss34</name>
<cmt>v</cmt>
<desc>Sinsin Sentier n°34 Rue Fourneau</desc>
<link href="https://chemins.be/sinsin/sentier/34"/><trkseg>
<trkpt lat="50.275573" lon="5.233070"><time>2026-05-02T17:16:53Z</time></trkpt>
<trkpt lat="50.277532" lon="5.230735"><time>2026-05-02T17:26:53Z</time></trkpt>
<trkpt lat="50.278173" lon="5.230437"><time>2026-05-02T17:36:53Z</time></trkpt>
<trkpt lat="50.278984" lon="5.230101"><time>2026-05-02T17:46:53Z</time></trkpt>
<trkpt lat="50.279526" lon="5.229859"><time>2026-05-02T17:56:53Z</time></trkpt>
<trkpt lat="50.279780" lon="5.229541"><time>2026-05-02T18:06:53Z</time></trkpt>
<trkpt lat="50.280203" lon="5.229506"><time>2026-05-02T18:16:53Z</time></trkpt>
<trkpt lat="50.280795" lon="5.229657"><time>2026-05-02T18:26:53Z</time></trkpt>
<trkpt lat="50.281627" lon="5.230276"><time>2026-05-02T18:36:53Z</time></trkpt>
<trkpt lat="50.281807" lon="5.231429"><time>2026-05-02T18:46:53Z</time></trkpt>
</trkseg></trk>
<trk>
<name>nslss34</name>
<cmt>r</cmt>
<desc>Sinsin Sentier n°34 Rue Fourneau</desc>
<link href="https://chemins.be/sinsin/sentier/34"/><trkseg>
<trkpt lat="50.281807" lon="5.231429"><time>2026-05-02T18:46:53Z</time></trkpt>
<trkpt lat="50.282805" lon="5.230129"><time>2026-05-02T18:56:53Z</time></trkpt>
<trkpt lat="50.283311" lon="5.229885"><time>2026-05-02T19:06:53Z</time></trkpt>
</trkseg></trk>
<trk>
<name>nslss34</name>
<cmt>v</cmt>
<desc>Sinsin Sentier n°34 Rue Fourneau</desc>
<link href="https://chemins.be/sinsin/sentier/34"/><trkseg>
<trkpt lat="50.283311" lon="5.229885"><time>2026-05-02T19:06:53Z</time></trkpt>
<trkpt lat="50.283747" lon="5.228083"><time>2026-05-02T19:16:53Z</time></trkpt>
<trkpt lat="50.285345" lon="5.225965"><time>2026-05-02T19:26:53Z</time></trkpt>
</trkseg></trk>
<trk>
<name>nslss34</name>
<cmt>q</cmt>
<desc>Sinsin Sentier n°34 Rue Fourneau</desc>
<link href="https://chemins.be/sinsin/sentier/34"/><trkseg>
<trkpt lat="50.285345" lon="5.225965"><time>2026-05-02T19:26:53Z</time></trkpt>
<trkpt lat="50.285687" lon="5.224680"><time>2026-05-02T19:36:53Z</time></trkpt>
<trkpt lat="50.285761" lon="5.223250"><time>2026-05-02T19:46:53Z</time></trkpt>
<trkpt lat="50.285615" lon="5.220988"><time>2026-05-02T19:56:53Z</time></trkpt>
<trkpt lat="50.285769" lon="5.219672"><time>2026-05-02T20:06:53Z</time></trkpt>
</trkseg>
</trk>
<trk>
<name>nslss35</name>
<cmt>v</cmt>
<desc>Sinsin Sentier n°35 </desc>
<link href="https://chemins.be/sinsin/sentier/35"/><trkseg>
<trkpt lat="50.273109" lon="5.282324"><time>2026-05-02T17:16:53Z</time></trkpt>
<trkpt lat="50.272398" lon="5.282296"><time>2026-05-02T17:26:53Z</time></trkpt>
<trkpt lat="50.272087" lon="5.281869"><time>2026-05-02T17:36:53Z</time></trkpt>
<trkpt lat="50.271782" lon="5.281793"><time>2026-05-02T17:46:53Z</time></trkpt>
<trkpt lat="50.271700" lon="5.281890"><time>2026-05-02T17:56:53Z</time></trkpt>
<trkpt lat="50.271784" lon="5.282677"><time>2026-05-02T18:06:53Z</time></trkpt>
<trkpt lat="50.272255" lon="5.283416"><time>2026-05-02T18:16:53Z</time></trkpt>
<trkpt lat="50.272279" lon="5.283697"><time>2026-05-02T18:26:53Z</time></trkpt>
<trkpt lat="50.271575" lon="5.284146"><time>2026-05-02T18:36:53Z</time></trkpt>
<trkpt lat="50.271168" lon="5.284377"><time>2026-05-02T18:46:53Z</time></trkpt>
<trkpt lat="50.271189" lon="5.285177"><time>2026-05-02T18:56:53Z</time></trkpt>
<trkpt lat="50.270566" lon="5.285459"><time>2026-05-02T19:06:53Z</time></trkpt>
<trkpt lat="50.270359" lon="5.286648"><time>2026-05-02T19:16:53Z</time></trkpt>
</trkseg>
</trk>
<trk>
<name>nslss36</name>
<cmt>d</cmt>
<desc>Sinsin Sentier n°36 </desc>
<link href="https://chemins.be/sinsin/sentier/36"/><trkseg>
<trkpt lat="50.272304" lon="5.243630"><time>2026-05-02T17:16:53Z</time></trkpt>
<trkpt lat="50.272154" lon="5.242912"><time>2026-05-02T17:26:53Z</time></trkpt>
<trkpt lat="50.272093" lon="5.242496"><time>2026-05-02T17:36:53Z</time></trkpt>
<trkpt lat="50.272242" lon="5.241960"><time>2026-05-02T17:46:53Z</time></trkpt>
<trkpt lat="50.272801" lon="5.240651"><time>2026-05-02T17:56:53Z</time></trkpt>
<trkpt lat="50.273311" lon="5.239813"><time>2026-05-02T18:06:53Z</time></trkpt>
</trkseg></trk>
<trk>
<name>nslss36</name>
<cmt>v</cmt>
<desc>Sinsin Sentier n°36 </desc>
<link href="https://chemins.be/sinsin/sentier/36"/><trkseg>
<trkpt lat="50.273311" lon="5.239813"><time>2026-05-02T18:06:53Z</time></trkpt>
<trkpt lat="50.273422" lon="5.239536"><time>2026-05-02T18:16:53Z</time></trkpt>
<trkpt lat="50.273405" lon="5.238950"><time>2026-05-02T18:26:53Z</time></trkpt>
</trkseg>
</trk>
<trk>
<name>nslss4</name>
<cmt>r</cmt>
<desc>Sinsin Chemin n°4 Rue Tige-de-Nettinne / Rue de BARVAUX</desc>
<link href="https://chemins.be/sinsin/chemin/4"/><trkseg>
<trkpt lat="50.277065" lon="5.239046"><time>2026-05-02T17:16:53Z</time></trkpt>
<trkpt lat="50.274697" lon="5.233573"><time>2026-05-02T17:26:53Z</time></trkpt>
<trkpt lat="50.273540" lon="5.231981"><time>2026-05-02T17:36:53Z</time></trkpt>
</trkseg></trk>
<trk>
<name>nslss4</name>
<cmt>v</cmt>
<desc>Sinsin Chemin n°4 Rue Tige-de-Nettinne / Rue de BARVAUX</desc>
<link href="https://chemins.be/sinsin/chemin/4"/><trkseg>
<trkpt lat="50.273540" lon="5.231981"><time>2026-05-02T17:36:53Z</time></trkpt>
<trkpt lat="50.273694" lon="5.231815"><time>2026-05-02T17:46:53Z</time></trkpt>
<trkpt lat="50.273578" lon="5.231617"><time>2026-05-02T17:56:53Z</time></trkpt>
<trkpt lat="50.273770" lon="5.231284"><time>2026-05-02T18:06:53Z</time></trkpt>
<trkpt lat="50.272932" lon="5.230258"><time>2026-05-02T18:16:53Z</time></trkpt>
<trkpt lat="50.272833" lon="5.230327"><time>2026-05-02T18:26:53Z</time></trkpt>
<trkpt lat="50.271748" lon="5.228736"><time>2026-05-02T18:36:53Z</time></trkpt>
<trkpt lat="50.270725" lon="5.227258"><time>2026-05-02T18:46:53Z</time></trkpt>
<trkpt lat="50.267995" lon="5.223071"><time>2026-05-02T18:56:53Z</time></trkpt>
<trkpt lat="50.267388" lon="5.222569"><time>2026-05-02T19:06:53Z</time></trkpt>
</trkseg></trk>
<trk>
<name>nslss4</name>
<cmt>s</cmt>
<desc>Sinsin Chemin n°4 Rue Tige-de-Nettinne / Rue de BARVAUX</desc>
<link href="https://chemins.be/sinsin/chemin/4"/><trkseg>
<trkpt lat="50.267388" lon="5.222569"><time>2026-05-02T19:06:53Z</time></trkpt>
<trkpt lat="50.265326" lon="5.221733"><time>2026-05-02T19:16:53Z</time></trkpt>
</trkseg></trk>
<trk>
<name>nslss4</name>
<cmt>d</cmt>
<desc>Sinsin Chemin n°4 Rue Tige-de-Nettinne / Rue de BARVAUX</desc>
<link href="https://chemins.be/sinsin/chemin/4"/><trkseg>
<trkpt lat="50.265326" lon="5.221733"><time>2026-05-02T19:16:53Z</time></trkpt>
<trkpt lat="50.264573" lon="5.221382"><time>2026-05-02T19:26:53Z</time></trkpt>
</trkseg></trk>
<trk>
<name>nslss4</name>
<cmt>r</cmt>
<desc>Sinsin Chemin n°4 Rue Tige-de-Nettinne / Rue de BARVAUX</desc>
<link href="https://chemins.be/sinsin/chemin/4"/><trkseg>
<trkpt lat="50.264573" lon="5.221382"><time>2026-05-02T19:26:53Z</time></trkpt>
<trkpt lat="50.262475" lon="5.219465"><time>2026-05-02T19:36:53Z</time></trkpt>
</trkseg>
</trk>
<trk>
<name>nslss5</name>
<cmt>r</cmt>
<desc>Sinsin Chemin n°5 Rue de Belvaux / ?</desc>
<link href="https://chemins.be/sinsin/chemin/5"/><trkseg>
<trkpt lat="50.276363" lon="5.265143"><time>2026-05-02T17:16:53Z</time></trkpt>
<trkpt lat="50.275734" lon="5.266268"><time>2026-05-02T17:26:53Z</time></trkpt>
<trkpt lat="50.274982" lon="5.269326"><time>2026-05-02T17:36:53Z</time></trkpt>
<trkpt lat="50.272904" lon="5.270521"><time>2026-05-02T17:46:53Z</time></trkpt>
<trkpt lat="50.267662" lon="5.269398"><time>2026-05-02T17:56:53Z</time></trkpt>
<trkpt lat="50.265759" lon="5.267931"><time>2026-05-02T18:06:53Z</time></trkpt>
</trkseg></trk>
<trk>
<name>nslss5</name>
<cmt>v</cmt>
<desc>Sinsin Chemin n°5 Rue de Belvaux / ?</desc>
<link href="https://chemins.be/sinsin/chemin/5"/><trkseg>
<trkpt lat="50.265759" lon="5.267931"><time>2026-05-02T18:06:53Z</time></trkpt>
<trkpt lat="50.264693" lon="5.268570"><time>2026-05-02T18:16:53Z</time></trkpt>
<trkpt lat="50.264293" lon="5.269110"><time>2026-05-02T18:26:53Z</time></trkpt>
</trkseg></trk>
<trk>
<name>nslss5</name>
<cmt>d</cmt>
<desc>Sinsin Chemin n°5 Rue de Belvaux / ?</desc>
<link href="https://chemins.be/sinsin/chemin/5"/><trkseg>
<trkpt lat="50.264293" lon="5.269110"><time>2026-05-02T18:26:53Z</time></trkpt>
<trkpt lat="50.263927" lon="5.269902"><time>2026-05-02T18:36:53Z</time></trkpt>
<trkpt lat="50.263282" lon="5.270774"><time>2026-05-02T18:46:53Z</time></trkpt>
</trkseg></trk>
<trk>
<name>nslss5</name>
<cmt>v</cmt>
<desc>Sinsin Chemin n°5 Rue de Belvaux / ?</desc>
<link href="https://chemins.be/sinsin/chemin/5"/><trkseg>
<trkpt lat="50.263282" lon="5.270774"><time>2026-05-02T18:46:53Z</time></trkpt>
<trkpt lat="50.262781" lon="5.271592"><time>2026-05-02T18:56:53Z</time></trkpt>
<trkpt lat="50.261930" lon="5.272361"><time>2026-05-02T19:06:53Z</time></trkpt>
<trkpt lat="50.261217" lon="5.272628"><time>2026-05-02T19:16:53Z</time></trkpt>
</trkseg>
</trk>
<trk>
<name>nslss6</name>
<cmt>v</cmt>
<desc>Sinsin Chemin n°6 Chemin d'Heure</desc>
<link href="https://chemins.be/sinsin/chemin/6"/><trkseg>
<trkpt lat="50.276857" lon="5.266387"><time>2026-05-02T17:16:53Z</time></trkpt>
<trkpt lat="50.277242" lon="5.267685"><time>2026-05-02T17:26:53Z</time></trkpt>
<trkpt lat="50.277873" lon="5.268679"><time>2026-05-02T17:36:53Z</time></trkpt>
<trkpt lat="50.278927" lon="5.271814"><time>2026-05-02T17:46:53Z</time></trkpt>
<trkpt lat="50.279709" lon="5.274200"><time>2026-05-02T17:56:53Z</time></trkpt>
<trkpt lat="50.280040" lon="5.275554"><time>2026-05-02T18:06:53Z</time></trkpt>
<trkpt lat="50.280659" lon="5.276814"><time>2026-05-02T18:16:53Z</time></trkpt>
<trkpt lat="50.280744" lon="5.277475"><time>2026-05-02T18:26:53Z</time></trkpt>
<trkpt lat="50.281093" lon="5.277735"><time>2026-05-02T18:36:53Z</time></trkpt>
<trkpt lat="50.281701" lon="5.279234"><time>2026-05-02T18:46:53Z</time></trkpt>
<trkpt lat="50.281906" lon="5.280683"><time>2026-05-02T18:56:53Z</time></trkpt>
<trkpt lat="50.281890" lon="5.281552"><time>2026-05-02T19:06:53Z</time></trkpt>
<trkpt lat="50.281886" lon="5.282058"><time>2026-05-02T19:16:53Z</time></trkpt>
</trkseg></trk>
<trk>
<name>nslss6</name>
<cmt>s</cmt>
<desc>Sinsin Chemin n°6 Chemin d'Heure</desc>
<link href="https://chemins.be/sinsin/chemin/6"/><trkseg>
<trkpt lat="50.281886" lon="5.282058"><time>2026-05-02T19:16:53Z</time></trkpt>
<trkpt lat="50.282939" lon="5.284267"><time>2026-05-02T19:26:53Z</time></trkpt>
<trkpt lat="50.283347" lon="5.287137"><time>2026-05-02T19:36:53Z</time></trkpt>
</trkseg>
</trk>
<trk>
<name>nslss7</name>
<cmt>r</cmt>
<desc>Sinsin Chemin n°7 Rue de sur Viet / Rue Nestor Bouillon / Rue du Sur-Viet / Rue du Fourneau / Rue Fourneau / ? / Rue Mehogne</desc>
<link href="https://chemins.be/sinsin/chemin/7"/><trkseg>
<trkpt lat="50.276002" lon="5.258262"><time>2026-05-02T17:16:53Z</time></trkpt>
<trkpt lat="50.277320" lon="5.256476"><time>2026-05-02T17:26:53Z</time></trkpt>
<trkpt lat="50.276665" lon="5.253939"><time>2026-05-02T17:36:53Z</time></trkpt>
<trkpt lat="50.276420" lon="5.251872"><time>2026-05-02T17:46:53Z</time></trkpt>
<trkpt lat="50.277402" lon="5.248032"><time>2026-05-02T17:56:53Z</time></trkpt>
<trkpt lat="50.277843" lon="5.246791"><time>2026-05-02T18:06:53Z</time></trkpt>
<trkpt lat="50.278824" lon="5.245434"><time>2026-05-02T18:16:53Z</time></trkpt>
<trkpt lat="50.279710" lon="5.243711"><time>2026-05-02T18:26:53Z</time></trkpt>
<trkpt lat="50.281001" lon="5.238164"><time>2026-05-02T18:36:53Z</time></trkpt>
<trkpt lat="50.282194" lon="5.236123"><time>2026-05-02T18:46:53Z</time></trkpt>
<trkpt lat="50.282118" lon="5.234255"><time>2026-05-02T18:56:53Z</time></trkpt>
<trkpt lat="50.281875" lon="5.233171"><time>2026-05-02T19:06:53Z</time></trkpt>
<trkpt lat="50.281825" lon="5.231416"><time>2026-05-02T19:16:53Z</time></trkpt>
<trkpt lat="50.282824" lon="5.230045"><time>2026-05-02T19:26:53Z</time></trkpt>
<trkpt lat="50.283301" lon="5.230025"><time>2026-05-02T19:36:53Z</time></trkpt>
<trkpt lat="50.284369" lon="5.230227"><time>2026-05-02T19:46:53Z</time></trkpt>
<trkpt lat="50.286054" lon="5.228532"><time>2026-05-02T19:56:53Z</time></trkpt>
<trkpt lat="50.288163" lon="5.225370"><time>2026-05-02T20:06:53Z</time></trkpt>
<trkpt lat="50.288572" lon="5.223567"><time>2026-05-02T20:16:53Z</time></trkpt>
</trkseg></trk>
<trk>
<name>nslss7</name>
<cmt>d</cmt>
<desc>Sinsin Chemin n°7 Rue de sur Viet / Rue Nestor Bouillon / Rue du Sur-Viet / Rue du Fourneau / Rue Fourneau / ? / Rue Mehogne</desc>
<link href="https://chemins.be/sinsin/chemin/7"/><trkseg>
<trkpt lat="50.288572" lon="5.223567"><time>2026-05-02T20:16:53Z</time></trkpt>
<trkpt lat="50.290689" lon="5.221781"><time>2026-05-02T20:26:53Z</time></trkpt>
</trkseg></trk>
<trk>
<name>nslss7</name>
<cmt>r</cmt>
<desc>Sinsin Chemin n°7 Rue de sur Viet / Rue Nestor Bouillon / Rue du Sur-Viet / Rue du Fourneau / Rue Fourneau / ? / Rue Mehogne</desc>
<link href="https://chemins.be/sinsin/chemin/7"/><trkseg>
<trkpt lat="50.290689" lon="5.221781"><time>2026-05-02T20:26:53Z</time></trkpt>
<trkpt lat="50.292758" lon="5.220513"><time>2026-05-02T20:36:53Z</time></trkpt>
</trkseg>
</trk>
<trk>
<name>nslss8</name>
<cmt>r</cmt>
<desc>Sinsin Chemin n°8 Rue de l'Observatoire / Rue du Sur-Viet</desc>
<link href="https://chemins.be/sinsin/chemin/8"/><trkseg>
<trkpt lat="50.270667" lon="5.249352"><time>2026-05-02T17:16:53Z</time></trkpt>
<trkpt lat="50.270888" lon="5.247490"><time>2026-05-02T17:26:53Z</time></trkpt>
<trkpt lat="50.271191" lon="5.245392"><time>2026-05-02T17:36:53Z</time></trkpt>
<trkpt lat="50.271712" lon="5.244448"><time>2026-05-02T17:46:53Z</time></trkpt>
<trkpt lat="50.272118" lon="5.244104"><time>2026-05-02T17:56:53Z</time></trkpt>
<trkpt lat="50.272599" lon="5.243552"><time>2026-05-02T18:06:53Z</time></trkpt>
<trkpt lat="50.274666" lon="5.244782"><time>2026-05-02T18:16:53Z</time></trkpt>
<trkpt lat="50.276032" lon="5.246070"><time>2026-05-02T18:26:53Z</time></trkpt>
<trkpt lat="50.277288" lon="5.246458"><time>2026-05-02T18:36:53Z</time></trkpt>
<trkpt lat="50.277799" lon="5.246664"><time>2026-05-02T18:46:53Z</time></trkpt>
</trkseg>
</trk>
<trk>
<name>nslss8bis</name>
<cmt>v</cmt>
<desc>Sinsin Chemin n°8bis </desc>
<link href="https://chemins.be/sinsin/chemin/8bis"/><trkseg>
<trkpt lat="50.271671" lon="5.244421"><time>2026-05-02T17:16:53Z</time></trkpt>
<trkpt lat="50.272041" lon="5.243129"><time>2026-05-02T17:26:53Z</time></trkpt>
<trkpt lat="50.272089" lon="5.242479"><time>2026-05-02T17:36:53Z</time></trkpt>
</trkseg>
</trk>
<trk>
<name>nslss9</name>
<cmt>r</cmt>
<desc>Sinsin Chemin n°9 Rue Mehogne / ?</desc>
<link href="https://chemins.be/sinsin/chemin/9"/><trkseg>
<trkpt lat="50.283424" lon="5.218198"><time>2026-05-02T17:16:53Z</time></trkpt>
<trkpt lat="50.284842" lon="5.218547"><time>2026-05-02T17:26:53Z</time></trkpt>
<trkpt lat="50.286704" lon="5.220853"><time>2026-05-02T17:36:53Z</time></trkpt>
<trkpt lat="50.288317" lon="5.221584"><time>2026-05-02T17:46:53Z</time></trkpt>
<trkpt lat="50.289447" lon="5.220734"><time>2026-05-02T17:56:53Z</time></trkpt>
<trkpt lat="50.290680" lon="5.221809"><time>2026-05-02T18:06:53Z</time></trkpt>
</trkseg></trk>
<trk>
<name>nslss9</name>
<cmt>v</cmt>
<desc>Sinsin Chemin n°9 Rue Mehogne / ?</desc>
<link href="https://chemins.be/sinsin/chemin/9"/><trkseg>
<trkpt lat="50.290680" lon="5.221809"><time>2026-05-02T18:06:53Z</time></trkpt>
<trkpt lat="50.291977" lon="5.224007"><time>2026-05-02T18:16:53Z</time></trkpt>
<trkpt lat="50.292989" lon="5.225724"><time>2026-05-02T18:26:53Z</time></trkpt>
<trkpt lat="50.293249" lon="5.227020"><time>2026-05-02T18:36:53Z</time></trkpt>
<trkpt lat="50.293218" lon="5.229994"><time>2026-05-02T18:46:53Z</time></trkpt>
<trkpt lat="50.293752" lon="5.230706"><time>2026-05-02T18:56:53Z</time></trkpt>
</trkseg></trk>
<trk>
<name>nslss9</name>
<cmt>d</cmt>
<desc>Sinsin Chemin n°9 Rue Mehogne / ?</desc>
<link href="https://chemins.be/sinsin/chemin/9"/><trkseg>
<trkpt lat="50.293752" lon="5.230706"><time>2026-05-02T18:56:53Z</time></trkpt>
<trkpt lat="50.294006" lon="5.231693"><time>2026-05-02T19:06:53Z</time></trkpt>
<trkpt lat="50.293898" lon="5.232828"><time>2026-05-02T19:16:53Z</time></trkpt>
<trkpt lat="50.293991" lon="5.233672"><time>2026-05-02T19:26:53Z</time></trkpt>
<trkpt lat="50.294331" lon="5.233874"><time>2026-05-02T19:36:53Z</time></trkpt>
</trkseg>
</trk>
<trk>
<name>nslssi1</name>
<cmt>d</cmt>
<desc>Sinsin Chemin n°i1 </desc>
<link href="https://chemins.be/sinsin/chemin/i1"/><trkseg>
<trkpt lat="50.277862" lon="5.246679"><time>2026-05-02T17:16:53Z</time></trkpt>
<trkpt lat="50.279822" lon="5.246673"><time>2026-05-02T17:26:53Z</time></trkpt>
<trkpt lat="50.280867" lon="5.247619"><time>2026-05-02T17:36:53Z</time></trkpt>
</trkseg>
</trk>
<trk>
<name>nslssi10</name>
<cmt>v</cmt>
<desc>Sinsin Chemin n°i10 </desc>
<link href="https://chemins.be/sinsin/chemin/i10"/><trkseg>
<trkpt lat="50.276048" lon="5.236457"><time>2026-05-02T17:16:53Z</time></trkpt>
<trkpt lat="50.275571" lon="5.236646"><time>2026-05-02T17:26:53Z</time></trkpt>
<trkpt lat="50.273409" lon="5.238927"><time>2026-05-02T17:36:53Z</time></trkpt>
</trkseg>
</trk>
<trk>
<name>nslssi11</name>
<cmt>v</cmt>
<desc>Sinsin Chemin n°i11 </desc>
<link href="https://chemins.be/sinsin/chemin/i11"/><trkseg>
<trkpt lat="50.264932" lon="5.250873"><time>2026-05-02T17:16:53Z</time></trkpt>
<trkpt lat="50.262650" lon="5.256709"><time>2026-05-02T17:26:53Z</time></trkpt>
<trkpt lat="50.261541" lon="5.259284"><time>2026-05-02T17:36:53Z</time></trkpt>
</trkseg>
</trk>
<trk>
<name>nslssi12</name>
<cmt>d</cmt>
<desc>Sinsin Chemin n°i12 </desc>
<link href="https://chemins.be/sinsin/chemin/i12"/><trkseg>
<trkpt lat="50.274840" lon="5.279176"><time>2026-05-02T17:16:53Z</time></trkpt>
<trkpt lat="50.274059" lon="5.276429"><time>2026-05-02T17:26:53Z</time></trkpt>
<trkpt lat="50.274059" lon="5.275742"><time>2026-05-02T17:36:53Z</time></trkpt>
</trkseg>
</trk>
<trk>
<name>nslssi13</name>
<cmt>v</cmt>
<desc>Sinsin Sentier n°i13 </desc>
<link href="https://chemins.be/sinsin/sentier/i13"/><trkseg>
<trkpt lat="50.283176" lon="5.258099"><time>2026-05-02T17:16:53Z</time></trkpt>
<trkpt lat="50.282080" lon="5.256940"><time>2026-05-02T17:26:53Z</time></trkpt>
<trkpt lat="50.281184" lon="5.256454"><time>2026-05-02T17:36:53Z</time></trkpt>
<trkpt lat="50.280550" lon="5.254976"><time>2026-05-02T17:46:53Z</time></trkpt>
<trkpt lat="50.279640" lon="5.254511"><time>2026-05-02T17:56:53Z</time></trkpt>
<trkpt lat="50.279081" lon="5.253649"><time>2026-05-02T18:06:53Z</time></trkpt>
<trkpt lat="50.279110" lon="5.252858"><time>2026-05-02T18:16:53Z</time></trkpt>
<trkpt lat="50.279303" lon="5.251764"><time>2026-05-02T18:26:53Z</time></trkpt>
<trkpt lat="50.279155" lon="5.250812"><time>2026-05-02T18:36:53Z</time></trkpt>
<trkpt lat="50.279201" lon="5.250326"><time>2026-05-02T18:46:53Z</time></trkpt>
<trkpt lat="50.278954" lon="5.249761"><time>2026-05-02T18:56:53Z</time></trkpt>
</trkseg>
</trk>
<trk>
<name>nslssi14</name>
<cmt>v</cmt>
<desc>Sinsin Chemin n°i14 </desc>
<link href="https://chemins.be/sinsin/chemin/i14"/><trkseg>
<trkpt lat="50.268750" lon="5.245143"><time>2026-05-02T17:16:53Z</time></trkpt>
<trkpt lat="50.269163" lon="5.244450"><time>2026-05-02T17:26:53Z</time></trkpt>
<trkpt lat="50.269703" lon="5.243793"><time>2026-05-02T17:36:53Z</time></trkpt>
<trkpt lat="50.270652" lon="5.242828"><time>2026-05-02T17:46:53Z</time></trkpt>
<trkpt lat="50.271577" lon="5.242254"><time>2026-05-02T17:56:53Z</time></trkpt>
<trkpt lat="50.271752" lon="5.242171"><time>2026-05-02T18:06:53Z</time></trkpt>
<trkpt lat="50.272070" lon="5.242471"><time>2026-05-02T18:16:53Z</time></trkpt>
</trkseg>
</trk>
<trk>
<name>nslssi15</name>
<cmt>v</cmt>
<desc>Sinsin Sentier n°i15 </desc>
<link href="https://chemins.be/sinsin/sentier/i15"/><trkseg>
<trkpt lat="50.280463" lon="5.258496"><time>2026-05-02T17:16:53Z</time></trkpt>
<trkpt lat="50.280414" lon="5.259075"><time>2026-05-02T17:26:53Z</time></trkpt>
<trkpt lat="50.280759" lon="5.259547"><time>2026-05-02T17:36:53Z</time></trkpt>
<trkpt lat="50.280858" lon="5.260479"><time>2026-05-02T17:46:53Z</time></trkpt>
<trkpt lat="50.281357" lon="5.261663"><time>2026-05-02T17:56:53Z</time></trkpt>
<trkpt lat="50.281711" lon="5.261573"><time>2026-05-02T18:06:53Z</time></trkpt>
<trkpt lat="50.281719" lon="5.261015"><time>2026-05-02T18:16:53Z</time></trkpt>
<trkpt lat="50.281969" lon="5.260715"><time>2026-05-02T18:26:53Z</time></trkpt>
<trkpt lat="50.282265" lon="5.261178"><time>2026-05-02T18:36:53Z</time></trkpt>
<trkpt lat="50.283329" lon="5.261543"><time>2026-05-02T18:46:53Z</time></trkpt>
<trkpt lat="50.283458" lon="5.261749"><time>2026-05-02T18:56:53Z</time></trkpt>
<trkpt lat="50.284239" lon="5.261723"><time>2026-05-02T19:06:53Z</time></trkpt>
</trkseg>
</trk>
<trk>
<name>nslssi2</name>
<cmt>d</cmt>
<desc>Sinsin Chemin n°i2 </desc>
<link href="https://chemins.be/sinsin/chemin/i2"/><trkseg>
<trkpt lat="50.277856" lon="5.249822"><time>2026-05-02T17:16:53Z</time></trkpt>
<trkpt lat="50.277867" lon="5.250762"><time>2026-05-02T17:26:53Z</time></trkpt>
<trkpt lat="50.278137" lon="5.251834"><time>2026-05-02T17:36:53Z</time></trkpt>
<trkpt lat="50.278165" lon="5.252886"><time>2026-05-02T17:46:53Z</time></trkpt>
<trkpt lat="50.278167" lon="5.255047"><time>2026-05-02T17:56:53Z</time></trkpt>
</trkseg>
</trk>
<trk>
<name>nslssi3</name>
<cmt>v</cmt>
<desc>Sinsin Chemin n°i3 </desc>
<link href="https://chemins.be/sinsin/chemin/i3"/><trkseg>
<trkpt lat="50.264301" lon="5.269166"><time>2026-05-02T17:16:53Z</time></trkpt>
<trkpt lat="50.264386" lon="5.269855"><time>2026-05-02T17:26:53Z</time></trkpt>
<trkpt lat="50.264726" lon="5.271236"><time>2026-05-02T17:36:53Z</time></trkpt>
<trkpt lat="50.264594" lon="5.271963"><time>2026-05-02T17:46:53Z</time></trkpt>
<trkpt lat="50.264520" lon="5.272284"><time>2026-05-02T17:56:53Z</time></trkpt>
<trkpt lat="50.264714" lon="5.272751"><time>2026-05-02T18:06:53Z</time></trkpt>
<trkpt lat="50.264451" lon="5.273026"><time>2026-05-02T18:16:53Z</time></trkpt>
<trkpt lat="50.264303" lon="5.273570"><time>2026-05-02T18:26:53Z</time></trkpt>
</trkseg></trk>
<trk>
<name>nslssi3</name>
<cmt>d</cmt>
<desc>Sinsin Chemin n°i3 </desc>
<link href="https://chemins.be/sinsin/chemin/i3"/><trkseg>
<trkpt lat="50.264303" lon="5.273570"><time>2026-05-02T18:26:53Z</time></trkpt>
<trkpt lat="50.263815" lon="5.275076"><time>2026-05-02T18:36:53Z</time></trkpt>
</trkseg>
</trk>
<trk>
<name>nslssi4</name>
<cmt>r</cmt>
<desc>Sinsin Chemin n°i4 Rue Grande Fagne / Chemin de Flunai</desc>
<link href="https://chemins.be/sinsin/chemin/i4"/><trkseg>
<trkpt lat="50.273279" lon="5.236844"><time>2026-05-02T17:16:53Z</time></trkpt>
<trkpt lat="50.271845" lon="5.231375"><time>2026-05-02T17:26:53Z</time></trkpt>
<trkpt lat="50.271436" lon="5.229516"><time>2026-05-02T17:36:53Z</time></trkpt>
<trkpt lat="50.271876" lon="5.228472"><time>2026-05-02T17:46:53Z</time></trkpt>
<trkpt lat="50.272480" lon="5.228216"><time>2026-05-02T17:56:53Z</time></trkpt>
<trkpt lat="50.275105" lon="5.229456"><time>2026-05-02T18:06:53Z</time></trkpt>
</trkseg>
</trk>
<trk>
<name>nslssi5</name>
<cmt>v</cmt>
<desc>Sinsin Chemin n°i5 </desc>
<link href="https://chemins.be/sinsin/chemin/i5"/><trkseg>
<trkpt lat="50.283283" lon="5.229983"><time>2026-05-02T17:16:53Z</time></trkpt>
<trkpt lat="50.283279" lon="5.230530"><time>2026-05-02T17:26:53Z</time></trkpt>
<trkpt lat="50.283264" lon="5.230922"><time>2026-05-02T17:36:53Z</time></trkpt>
<trkpt lat="50.282957" lon="5.231549"><time>2026-05-02T17:46:53Z</time></trkpt>
<trkpt lat="50.282844" lon="5.232234"><time>2026-05-02T17:56:53Z</time></trkpt>
<trkpt lat="50.282798" lon="5.233744"><time>2026-05-02T18:06:53Z</time></trkpt>
<trkpt lat="50.283065" lon="5.235171"><time>2026-05-02T18:16:53Z</time></trkpt>
</trkseg>
</trk>
<trk>
<name>nslssi6</name>
<cmt>v</cmt>
<desc>Sinsin Sentier n°i6 </desc>
<link href="https://chemins.be/sinsin/sentier/i6"/><trkseg>
<trkpt lat="50.289806" lon="5.277705"><time>2026-05-02T17:16:53Z</time></trkpt>
<trkpt lat="50.289934" lon="5.277328"><time>2026-05-02T17:26:53Z</time></trkpt>
<trkpt lat="50.289944" lon="5.276150"><time>2026-05-02T17:36:53Z</time></trkpt>
<trkpt lat="50.289804" lon="5.275642"><time>2026-05-02T17:46:53Z</time></trkpt>
<trkpt lat="50.289130" lon="5.274450"><time>2026-05-02T17:56:53Z</time></trkpt>
<trkpt lat="50.288676" lon="5.273838"><time>2026-05-02T18:06:53Z</time></trkpt>
<trkpt lat="50.288339" lon="5.273228"><time>2026-05-02T18:16:53Z</time></trkpt>
<trkpt lat="50.288214" lon="5.273071"><time>2026-05-02T18:26:53Z</time></trkpt>
<trkpt lat="50.287902" lon="5.272813"><time>2026-05-02T18:36:53Z</time></trkpt>
<trkpt lat="50.287716" lon="5.272360"><time>2026-05-02T18:46:53Z</time></trkpt>
<trkpt lat="50.286800" lon="5.270027"><time>2026-05-02T18:56:53Z</time></trkpt>
<trkpt lat="50.286374" lon="5.269233"><time>2026-05-02T19:06:53Z</time></trkpt>
<trkpt lat="50.285578" lon="5.266341"><time>2026-05-02T19:16:53Z</time></trkpt>
<trkpt lat="50.285186" lon="5.265969"><time>2026-05-02T19:26:53Z</time></trkpt>
<trkpt lat="50.284805" lon="5.265260"><time>2026-05-02T19:36:53Z</time></trkpt>
<trkpt lat="50.284454" lon="5.264019"><time>2026-05-02T19:46:53Z</time></trkpt>
<trkpt lat="50.284303" lon="5.262697"><time>2026-05-02T19:56:53Z</time></trkpt>
<trkpt lat="50.284155" lon="5.260828"><time>2026-05-02T20:06:53Z</time></trkpt>
<trkpt lat="50.282797" lon="5.259750"><time>2026-05-02T20:16:53Z</time></trkpt>
<trkpt lat="50.281339" lon="5.258839"><time>2026-05-02T20:26:53Z</time></trkpt>
<trkpt lat="50.280599" lon="5.259176"><time>2026-05-02T20:36:53Z</time></trkpt>
<trkpt lat="50.280706" lon="5.260384"><time>2026-05-02T20:46:53Z</time></trkpt>
<trkpt lat="50.281031" lon="5.261415"><time>2026-05-02T20:56:53Z</time></trkpt>
<trkpt lat="50.280690" lon="5.262531"><time>2026-05-02T21:06:53Z</time></trkpt>
</trkseg>
</trk>
<trk>
<name>nslssi7</name>
<cmt>v</cmt>
<desc>Sinsin Chemin n°i7 </desc>
<link href="https://chemins.be/sinsin/chemin/i7"/><trkseg>
<trkpt lat="50.286857" lon="5.271867"><time>2026-05-02T17:16:53Z</time></trkpt>
<trkpt lat="50.287028" lon="5.271884"><time>2026-05-02T17:26:53Z</time></trkpt>
<trkpt lat="50.287341" lon="5.272142"><time>2026-05-02T17:36:53Z</time></trkpt>
<trkpt lat="50.287698" lon="5.272360"><time>2026-05-02T17:46:53Z</time></trkpt>
</trkseg>
</trk>
<trk>
<name>nslssi8</name>
<cmt>v</cmt>
<desc>Sinsin Sentier n°i8 </desc>
<link href="https://chemins.be/sinsin/sentier/i8"/><trkseg>
<trkpt lat="50.272898" lon="5.280454"><time>2026-05-02T17:16:53Z</time></trkpt>
<trkpt lat="50.272063" lon="5.281504"><time>2026-05-02T17:26:53Z</time></trkpt>
<trkpt lat="50.271845" lon="5.281823"><time>2026-05-02T17:36:53Z</time></trkpt>
</trkseg>
</trk>
<trk>
<name>nslssi9</name>
<cmt>q</cmt>
<desc>Sinsin Chemin n°i9 </desc>
<link href="https://chemins.be/sinsin/chemin/i9"/><trkseg>
<trkpt lat="50.271584" lon="5.281860"><time>2026-05-02T17:16:53Z</time></trkpt>
<trkpt lat="50.270061" lon="5.281129"><time>2026-05-02T17:26:53Z</time></trkpt>
<trkpt lat="50.268759" lon="5.280866"><time>2026-05-02T17:36:53Z</time></trkpt>
<trkpt lat="50.267771" lon="5.280790"><time>2026-05-02T17:46:53Z</time></trkpt>
<trkpt lat="50.267613" lon="5.281433"><time>2026-05-02T17:56:53Z</time></trkpt>
<trkpt lat="50.268056" lon="5.282199"><time>2026-05-02T18:06:53Z</time></trkpt>
<trkpt lat="50.269061" lon="5.284785"><time>2026-05-02T18:16:53Z</time></trkpt>
<trkpt lat="50.270250" lon="5.286828"><time>2026-05-02T18:26:53Z</time></trkpt>
</trkseg>
</trk>
</gpx>